C. Budejovice-Roznov, República Checa

9:51 AM CEST en Abril 19, 2015 (GMT +0200)
Trhové Sviny | | Change Station
CLOSE
Current Station
Estación meteorológica personal
Location: Trhové Sviny, JIHOčESKý KRAJ
Altura: 1512 ft
Estaciones meteorológicas cercanas

Alt 1512 ft 48.84 °N, 14.64 °E | Updated 1 minute ago

Clear
Despejado
44.8 ° F
Sensación térmica 44 ° F
N
3.3
Viento Variable Viento desde SSE
Gusts 6.9 mph

Hoy
Alta -- | Baja -- ° F
--% Posibilidad de precipitaciones
Ayer
Alta -- | Baja -- ° F
Precip. -- pul
6:04 AM 7:59 PM
Luna nueva, 0% visible
Presión 30.21 pul
Visibilidad -9999.0 Millas
Nubes
Vientos helados 44 ° F
Punto de rocío 31 ° F
Humedad 58%
Precipitaciones 0.00 pul
Espesor de la nieve No disponible.
UV No disponible.
Polen No disponible.
Calidad del aire No disponible.
Flu Activity No disponible.
METAR LOWL 190720Z 09003KT 030V130 CAVOK 06/01 Q1023 NOSIG

More Conditions Fewer Conditions

Presión 30.21 pul
Visibilidad -9999.0 Millas
Nubes
Vientos helados 44 ° F
Punto de rocío 31 ° F
Humedad 58%
Precipitaciones 0.00 pul
Espesor de la nieve No disponible.
UV No disponible.
Polen No disponible.
Calidad del aire No disponible.
Flu Activity No disponible.
METAR LOWL 190720Z 09003KT 030V130 CAVOK 06/01 Q1023 NOSIG

More Conditions Fewer Conditions

10-Day Weather Forecast

Almanac

Astronomía

Apr. 19, 2015 Salida Puesta
Hora real
Crepúsculo civil
Crepúsculo náutico
Crepúsculo astronómico
Luna
Horas de luz
Horas de luz
Tomorrow will be .
, % of the Moon is Illuminated

Extremos de hoy

Máximos del país Bajas del país

Community

WunderPhotos

Upload Photos

1,814,723 ¡fotos cargadas!

WunderBlogs® & News

Nearby

Calidad del aire

  Calidad del aire Índice AQ Contaminante
Not available.

Grosos de nieve

Estación Profundido Altura

Actividad de terremotos

Ciudad Distance Mag. Tiempo y dato
Magnitud mínima muestra es 2,5.

Temperaturas de aguas costeras

Lugar Temperatura

Stations

Estaciones meteorológicas cercanas

Ubicación de la estación Temp. Vientos helados Punto de rocío Humedad Viento Precip. Alt Actualizado Tipo